< < Back
Terminal Aerodrome Forecast


Current Version              Previous Versions:   1  2  3  4  5  6  7  8  9  

Terminal Aerodrome Forecast

734
FTUS44 KBMX 172300
TAFTCL
TAF
KTCL 172325Z 1800/1824 11006KT P6SM BKN050 OVC120
     FM180800 08007KT P6SM VCSH OVC040=



Latest METAR

393
SAUS70 KWBC 181000 RRD
MTRTCL
METAR KTCL 180953Z AUTO 07004KT 10SM OVC034 16/08 A3019 RMK AO2 SLP220
T01610083


USA.gov is the U.S. government's official web portal to all federal, state and local government web resources and services.